Hauptseite
METAR-TAF:

METAR-TAF

Flughäfen :

Flughafen Mandalay

Mandalay, Myanmar

Breite: 21-59N, Länge: 096-06E, Höhe: 74 m

Beobachtung

Neuester Wetterbericht von vor 46 Minuten, um 17:30 UTC
Wind 2 kt aus Nordwest
Temperatur 11°C
Luftfeuchtigkeit 76%
Luftdruck 1012 hPa
Sichtweite: 6000 m

METAR: VYMD 251730Z 31002KT 6000 NSC 11/07 Q1012 NOSIG

Zeit: 00:46 (18:16 UTC)

Prognose

Neuester Wetterbericht von vor 1 Stunde und 16 Minuten, um 17:00 UTC
Gültige Prognose vom 25 um 18 UTC bis 26 um 18 UTC
Wind 3 kt aus Nord
Sichtweite: 7000 m
Leicht bewölkt in der Höhe von 2500 ft
Zeitweise
vom 25 um 18 UTC bis 25 um 24 UTC
Wind 5 kt aus Nord
Sichtweite: 5000 m
Leicht bewölkt in der Höhe von 2000 ft
feuchter Dunst

TAF: VYMD 251700Z 2518/2618 36003KT 7000 FEW025 TEMPO 2518/2524 35005KT 5000 BR FEW020

Wetterbeobachtungen und Prognosen von mehr als 4000 Flughäfen (METAR und TAF Bericht).

Die verfügbaren Stationen werden durch gelbe und rote Markierungen auf der Karte dargestellt.

Führen Sie die Maus auf sie, um den Namen der Station zu sehen.

Darauf klicken, um die Beobachtung von Wetterbeobachtungen und Prognosen zu sehen.

Um die Karte zu ändern : klicken Sie auf den grünen Tasten mit einem schwarzen Kreuz Zum Vergrößern, auf den grünen Button mit einem Gedankenstrich zu verkleinern, oder auf die grünen Pfeile für benachbarte Karten.


METAR-TAF: